Archival Weather

Tokyo Intl

Tokyo Intl, Japan (RJTT)

Report from: Friday, June 24, 2022 11:22 AM JST
Current time: Tuesday, August 16, 2022 3:27 PM JST

Current weather
Weather history
Weather forecast

Temperature30.0°C (86.0°F)
Heat index34.2°C (93.6°F)
Dew point23.0°C (73.4°F)
Winds 20 kts (10.3 m/s, 23 mph) South-Southwest (200°)
Wind gusts 30 kts (15.4 m/s, 34.5 mph)
Visibility6.2 mi. (10 km)
Clouds Ceiling: Broken clouds 0 ft. (0 m)
Few clouds 3,000 ft. (914 m)
Altimeter29.68 in.Hg (1005 mB)
Relative humidity66 %
Density altitude2,374 ft. (724 m)
Remarks Special weather observation
Flight conditions Low Instrument Meteorological Conditions
Raw dataSPJP31 KWBC 240236 SPECI RJTT 240222Z 20020G30KT 9999 FEW030 BKN/// 30/23 Q1005 RMK 1CU030 A2969
An error has occurred. This application may no longer respond until reloaded. Reload 🗙